This is the latest recevied weather packets stored in our database for station/object KD9YTS-13. If no packets are shown the sender has not sent any weather packets the latest 10 day(s).
| Time | Temp. | Humidity | Pressure | Rain* | Wind** | Luminosity | Snow |
|---|---|---|---|---|---|---|---|
| 1778067383 | 1.11° C | 7% | - | 0 mm | - | - | - |
| 1778066182 | -17.78° C | 100% | - | 0 mm | - | - | - |
| 1778064982 | -17.78° C | 100% | - | 0 mm | - | - | - |
| 1778063783 | -17.78° C | 100% | - | 0 mm | - | - | - |
| 1778062582 | -17.78° C | 100% | - | 0 mm | - | - | - |
| 1778061383 | 0° C | 8% | - | 0 mm | - | - | - |
| 1778060182 | -17.78° C | 100% | - | 0 mm | - | - | - |
| 1778058983 | -17.78° C | 100% | - | 0 mm | - | - | - |
| 1778057783 | -17.78° C | 100% | - | 0 mm | - | - | - |
| 1778056582 | 0° C | 7% | - | 0 mm | - | - | - |
| 1778055382 | -17.78° C | 100% | - | 0 mm | - | - | - |
| 1778054182 | -17.78° C | 100% | - | 0 mm | - | - | - |
| 1778052983 | -17.78° C | 100% | - | 0 mm | - | - | - |
| 1778051782 | 0.56° C | 7% | - | 0 mm | - | - | - |
| 1778050582 | 0.56° C | 7% | - | 0 mm | - | - | - |
| 1778049383 | 1.11° C | 7% | - | 0 mm | - | - | - |
| 1778048182 | -17.78° C | 100% | - | 0 mm | - | - | - |
| 1778046983 | -17.78° C | 100% | - | 0 mm | - | - | - |
| 1778045782 | -17.78° C | 100% | - | 0 mm | - | - | - |
| 1778044582 | 1.11° C | 7% | - | 0 mm | - | - | - |
| 1778043382 | -17.78° C | 100% | - | 0 mm | - | - | - |
| 1778042182 | -17.78° C | 100% | - | 0 mm | - | - | - |
| 1778040982 | -17.78° C | 100% | - | 0 mm | - | - | - |
| 1778039784 | -17.78° C | 100% | - | 0 mm | - | - | - |
| 1778038582 | 3.33° C | 6% | - | 0 mm | - | - | - |
* Rain latest hour (hover to see other rain measurements)
** Current wind speed in m/s (hover to see current wind gust speed)